sensor_id;sensor_type;location;lat;lon;timestamp;P1;durP1;ratioP1;P2;durP2;ratioP2
72601;SDS011;60644;55.858;37.390;2024-03-07T00:00:42;10.35;;;2.13;;
72601;SDS011;60644;55.858;37.390;2024-03-07T00:03:08;6.60;;;1.90;;
72601;SDS011;60644;55.858;37.390;2024-03-07T00:05:34;10.90;;;1.77;;
72601;SDS011;60644;55.858;37.390;2024-03-07T00:08:00;7.30;;;1.90;;
72601;SDS011;60644;55.858;37.390;2024-03-07T00:10:27;11.75;;;2.67;;
72601;SDS011;60644;55.858;37.390;2024-03-07T00:12:53;10.67;;;2.70;;
72601;SDS011;60644;55.858;37.390;2024-03-07T00:15:19;9.90;;;2.50;;
72601;SDS011;60644;55.858;37.390;2024-03-07T00:17:45;8.38;;;2.10;;
72601;SDS011;60644;55.858;37.390;2024-03-07T00:20:10;9.67;;;2.37;;
72601;SDS011;60644;55.858;37.390;2024-03-07T00:22:44;6.40;;;2.15;;
72601;SDS011;60644;55.858;37.390;2024-03-07T00:25:10;8.07;;;1.90;;
72601;SDS011;60644;55.858;37.390;2024-03-07T00:27:36;7.22;;;2.05;;
72601;SDS011;60644;55.858;37.390;2024-03-07T00:30:02;12.50;;;2.97;;
72601;SDS011;60644;55.858;37.390;2024-03-07T00:32:30;14.35;;;3.08;;
72601;SDS011;60644;55.858;37.390;2024-03-07T00:35:01;11.55;;;3.53;;
72601;SDS011;60644;55.858;37.390;2024-03-07T00:37:30;11.63;;;2.50;;
72601;SDS011;60644;55.858;37.390;2024-03-07T00:39:56;9.50;;;2.53;;
72601;SDS011;60644;55.858;37.390;2024-03-07T00:42:22;16.00;;;3.40;;
72601;SDS011;60644;55.858;37.390;2024-03-07T00:44:47;10.63;;;2.80;;
72601;SDS011;60644;55.858;37.390;2024-03-07T00:47:14;14.65;;;3.58;;
72601;SDS011;60644;55.858;37.390;2024-03-07T00:49:40;11.32;;;2.85;;
72601;SDS011;60644;55.858;37.390;2024-03-07T00:52:06;12.93;;;3.60;;
72601;SDS011;60644;55.858;37.390;2024-03-07T00:54:31;11.23;;;3.33;;
72601;SDS011;60644;55.858;37.390;2024-03-07T00:56:57;9.88;;;2.75;;
72601;SDS011;60644;55.858;37.390;2024-03-07T00:59:23;11.70;;;3.13;;
72601;SDS011;60644;55.858;37.390;2024-03-07T01:01:48;11.35;;;3.47;;
72601;SDS011;60644;55.858;37.390;2024-03-07T01:04:14;12.52;;;3.53;;
72601;SDS011;60644;55.858;37.390;2024-03-07T01:06:40;13.68;;;3.47;;
72601;SDS011;60644;55.858;37.390;2024-03-07T01:09:06;11.47;;;2.80;;
72601;SDS011;60644;55.858;37.390;2024-03-07T01:11:40;12.65;;;3.05;;
72601;SDS011;60644;55.858;37.390;2024-03-07T01:14:06;14.60;;;4.35;;
72601;SDS011;60644;55.858;37.390;2024-03-07T01:16:32;16.25;;;4.30;;
72601;SDS011;60644;55.858;37.390;2024-03-07T01:18:57;14.23;;;4.10;;
72601;SDS011;60644;55.858;37.390;2024-03-07T01:21:23;17.97;;;4.23;;
72601;SDS011;60644;55.858;37.390;2024-03-07T01:23:49;11.75;;;3.85;;
72601;SDS011;60644;55.858;37.390;2024-03-07T01:26:15;12.30;;;4.10;;
72601;SDS011;60644;55.858;37.390;2024-03-07T01:28:40;14.90;;;4.03;;
72601;SDS011;60644;55.858;37.390;2024-03-07T01:31:06;16.45;;;3.75;;
72601;SDS011;60644;55.858;37.390;2024-03-07T01:33:34;11.95;;;2.97;;
72601;SDS011;60644;55.858;37.390;2024-03-07T01:36:00;10.47;;;3.60;;
72601;SDS011;60644;55.858;37.390;2024-03-07T01:38:25;15.17;;;3.27;;
72601;SDS011;60644;55.858;37.390;2024-03-07T01:40:51;10.48;;;3.95;;
72601;SDS011;60644;55.858;37.390;2024-03-07T01:43:17;12.33;;;3.40;;
72601;SDS011;60644;55.858;37.390;2024-03-07T01:45:42;12.73;;;3.35;;
72601;SDS011;60644;55.858;37.390;2024-03-07T01:48:09;15.70;;;3.20;;
72601;SDS011;60644;55.858;37.390;2024-03-07T01:50:35;11.27;;;2.77;;
72601;SDS011;60644;55.858;37.390;2024-03-07T01:53:03;8.38;;;2.20;;
72601;SDS011;60644;55.858;37.390;2024-03-07T01:55:29;8.38;;;2.58;;
72601;SDS011;60644;55.858;37.390;2024-03-07T01:58:02;9.77;;;2.73;;
72601;SDS011;60644;55.858;37.390;2024-03-07T02:00:28;10.52;;;2.35;;
72601;SDS011;60644;55.858;37.390;2024-03-07T02:02:53;10.05;;;2.30;;
72601;SDS011;60644;55.858;37.390;2024-03-07T02:05:22;11.57;;;2.70;;
72601;SDS011;60644;55.858;37.390;2024-03-07T02:07:48;10.05;;;2.70;;
72601;SDS011;60644;55.858;37.390;2024-03-07T02:10:15;8.90;;;2.58;;
72601;SDS011;60644;55.858;37.390;2024-03-07T02:12:41;9.03;;;2.50;;
72601;SDS011;60644;55.858;37.390;2024-03-07T02:15:07;8.88;;;2.10;;
72601;SDS011;60644;55.858;37.390;2024-03-07T02:17:33;9.13;;;2.03;;
72601;SDS011;60644;55.858;37.390;2024-03-07T02:20:00;7.03;;;2.17;;
72601;SDS011;60644;55.858;37.390;2024-03-07T02:22:25;8.30;;;2.50;;
72601;SDS011;60644;55.858;37.390;2024-03-07T02:24:51;9.32;;;2.03;;
72601;SDS011;60644;55.858;37.390;2024-03-07T02:27:18;9.18;;;1.98;;
72601;SDS011;60644;55.858;37.390;2024-03-07T02:29:44;8.83;;;2.27;;
72601;SDS011;60644;55.858;37.390;2024-03-07T02:32:09;10.53;;;3.00;;
72601;SDS011;60644;55.858;37.390;2024-03-07T02:34:35;7.65;;;2.15;;
72601;SDS011;60644;55.858;37.390;2024-03-07T02:37:01;10.27;;;2.85;;
72601;SDS011;60644;55.858;37.390;2024-03-07T02:39:27;9.03;;;2.27;;
72601;SDS011;60644;55.858;37.390;2024-03-07T02:41:52;13.68;;;2.78;;
72601;SDS011;60644;55.858;37.390;2024-03-07T02:44:18;12.73;;;2.73;;
72601;SDS011;60644;55.858;37.390;2024-03-07T02:46:45;9.68;;;2.15;;
72601;SDS011;60644;55.858;37.390;2024-03-07T02:49:10;12.63;;;2.73;;
72601;SDS011;60644;55.858;37.390;2024-03-07T02:51:36;10.35;;;2.45;;
72601;SDS011;60644;55.858;37.390;2024-03-07T02:54:02;11.37;;;2.43;;
72601;SDS011;60644;55.858;37.390;2024-03-07T02:56:31;10.27;;;2.83;;
72601;SDS011;60644;55.858;37.390;2024-03-07T02:58:56;8.70;;;2.17;;
72601;SDS011;60644;55.858;37.390;2024-03-07T03:01:22;10.33;;;2.37;;
72601;SDS011;60644;55.858;37.390;2024-03-07T03:03:48;7.23;;;2.03;;
72601;SDS011;60644;55.858;37.390;2024-03-07T03:06:13;11.45;;;3.45;;
72601;SDS011;60644;55.858;37.390;2024-03-07T03:08:39;13.70;;;2.70;;
72601;SDS011;60644;55.858;37.390;2024-03-07T03:11:04;11.13;;;2.40;;
72601;SDS011;60644;55.858;37.390;2024-03-07T03:13:30;8.35;;;2.22;;
72601;SDS011;60644;55.858;37.390;2024-03-07T03:15:56;8.10;;;1.47;;
72601;SDS011;60644;55.858;37.390;2024-03-07T03:18:22;7.72;;;2.20;;
72601;SDS011;60644;55.858;37.390;2024-03-07T03:20:49;8.02;;;1.80;;
72601;SDS011;60644;55.858;37.390;2024-03-07T03:23:14;8.17;;;2.63;;
72601;SDS011;60644;55.858;37.390;2024-03-07T03:25:41;8.00;;;1.80;;
72601;SDS011;60644;55.858;37.390;2024-03-07T03:28:07;9.18;;;2.10;;
72601;SDS011;60644;55.858;37.390;2024-03-07T03:30:38;7.53;;;2.20;;
72601;SDS011;60644;55.858;37.390;2024-03-07T03:33:04;8.07;;;2.00;;
72601;SDS011;60644;55.858;37.390;2024-03-07T03:35:31;8.75;;;2.10;;
72601;SDS011;60644;55.858;37.390;2024-03-07T03:37:57;8.95;;;2.80;;
72601;SDS011;60644;55.858;37.390;2024-03-07T03:40:22;11.80;;;2.77;;
72601;SDS011;60644;55.858;37.390;2024-03-07T03:42:48;7.03;;;2.30;;
72601;SDS011;60644;55.858;37.390;2024-03-07T03:45:14;7.68;;;2.13;;
72601;SDS011;60644;55.858;37.390;2024-03-07T03:47:41;6.57;;;1.80;;
72601;SDS011;60644;55.858;37.390;2024-03-07T03:50:11;9.30;;;1.90;;
72601;SDS011;60644;55.858;37.390;2024-03-07T03:52:37;13.85;;;2.65;;
72601;SDS011;60644;55.858;37.390;2024-03-07T03:55:03;8.65;;;2.25;;
72601;SDS011;60644;55.858;37.390;2024-03-07T03:57:31;9.50;;;2.53;;
72601;SDS011;60644;55.858;37.390;2024-03-07T03:59:56;6.67;;;2.03;;
72601;SDS011;60644;55.858;37.390;2024-03-07T04:02:22;8.52;;;1.88;;
72601;SDS011;60644;55.858;37.390;2024-03-07T04:04:49;9.33;;;2.43;;
72601;SDS011;60644;55.858;37.390;2024-03-07T04:07:14;6.28;;;1.95;;
72601;SDS011;60644;55.858;37.390;2024-03-07T04:09:43;12.90;;;2.67;;
72601;SDS011;60644;55.858;37.390;2024-03-07T04:12:09;10.32;;;2.20;;
72601;SDS011;60644;55.858;37.390;2024-03-07T04:14:42;8.65;;;2.10;;
72601;SDS011;60644;55.858;37.390;2024-03-07T04:17:08;11.03;;;2.30;;
72601;SDS011;60644;55.858;37.390;2024-03-07T04:19:38;9.00;;;2.67;;
72601;SDS011;60644;55.858;37.390;2024-03-07T04:22:04;7.60;;;2.38;;
72601;SDS011;60644;55.858;37.390;2024-03-07T04:24:30;7.53;;;1.80;;
72601;SDS011;60644;55.858;37.390;2024-03-07T04:26:58;9.30;;;2.40;;
72601;SDS011;60644;55.858;37.390;2024-03-07T04:29:25;8.98;;;1.90;;
72601;SDS011;60644;55.858;37.390;2024-03-07T04:31:50;11.35;;;2.70;;
72601;SDS011;60644;55.858;37.390;2024-03-07T04:34:17;9.00;;;2.92;;
72601;SDS011;60644;55.858;37.390;2024-03-07T04:36:42;10.07;;;2.47;;
72601;SDS011;60644;55.858;37.390;2024-03-07T04:39:08;9.27;;;2.50;;
72601;SDS011;60644;55.858;37.390;2024-03-07T04:41:48;7.32;;;1.92;;
72601;SDS011;60644;55.858;37.390;2024-03-07T04:44:13;8.98;;;2.88;;
72601;SDS011;60644;55.858;37.390;2024-03-07T04:46:39;8.25;;;2.20;;
72601;SDS011;60644;55.858;37.390;2024-03-07T04:49:08;12.25;;;2.90;;
72601;SDS011;60644;55.858;37.390;2024-03-07T04:51:34;6.53;;;2.10;;
72601;SDS011;60644;55.858;37.390;2024-03-07T04:54:00;10.93;;;2.47;;
72601;SDS011;60644;55.858;37.390;2024-03-07T04:56:26;11.02;;;2.92;;
72601;SDS011;60644;55.858;37.390;2024-03-07T04:58:51;8.10;;;2.00;;
72601;SDS011;60644;55.858;37.390;2024-03-07T05:01:20;8.85;;;2.50;;
72601;SDS011;60644;55.858;37.390;2024-03-07T05:03:45;9.32;;;2.58;;
72601;SDS011;60644;55.858;37.390;2024-03-07T05:06:11;12.60;;;2.63;;
72601;SDS011;60644;55.858;37.390;2024-03-07T05:08:38;10.77;;;2.45;;
72601;SDS011;60644;55.858;37.390;2024-03-07T05:11:03;7.25;;;2.38;;
72601;SDS011;60644;55.858;37.390;2024-03-07T05:13:29;10.23;;;2.73;;
72601;SDS011;60644;55.858;37.390;2024-03-07T05:15:57;9.90;;;3.15;;
72601;SDS011;60644;55.858;37.390;2024-03-07T05:18:23;9.15;;;2.50;;
72601;SDS011;60644;55.858;37.390;2024-03-07T05:20:49;13.50;;;2.63;;
72601;SDS011;60644;55.858;37.390;2024-03-07T05:23:14;11.90;;;2.28;;
72601;SDS011;60644;55.858;37.390;2024-03-07T05:25:40;10.67;;;2.67;;
72601;SDS011;60644;55.858;37.390;2024-03-07T05:28:05;10.85;;;3.42;;
72601;SDS011;60644;55.858;37.390;2024-03-07T05:30:31;14.03;;;3.00;;
72601;SDS011;60644;55.858;37.390;2024-03-07T05:32:58;9.93;;;2.50;;
72601;SDS011;60644;55.858;37.390;2024-03-07T05:35:26;9.10;;;2.88;;
72601;SDS011;60644;55.858;37.390;2024-03-07T05:37:54;9.07;;;2.80;;
72601;SDS011;60644;55.858;37.390;2024-03-07T05:40:22;9.77;;;2.67;;
72601;SDS011;60644;55.858;37.390;2024-03-07T05:42:48;13.50;;;3.30;;
72601;SDS011;60644;55.858;37.390;2024-03-07T05:45:14;10.13;;;2.53;;
72601;SDS011;60644;55.858;37.390;2024-03-07T05:47:40;9.67;;;3.00;;
72601;SDS011;60644;55.858;37.390;2024-03-07T05:50:06;10.15;;;3.45;;
72601;SDS011;60644;55.858;37.390;2024-03-07T05:52:32;9.65;;;2.88;;
72601;SDS011;60644;55.858;37.390;2024-03-07T05:54:58;11.83;;;3.03;;
72601;SDS011;60644;55.858;37.390;2024-03-07T05:57:25;8.90;;;2.63;;
72601;SDS011;60644;55.858;37.390;2024-03-07T05:59:50;15.10;;;2.93;;
72601;SDS011;60644;55.858;37.390;2024-03-07T06:02:16;13.05;;;3.35;;
72601;SDS011;60644;55.858;37.390;2024-03-07T06:04:42;12.47;;;4.93;;
72601;SDS011;60644;55.858;37.390;2024-03-07T06:07:09;12.82;;;3.25;;
72601;SDS011;60644;55.858;37.390;2024-03-07T06:09:36;14.85;;;2.80;;
72601;SDS011;60644;55.858;37.390;2024-03-07T06:12:02;11.50;;;2.80;;
72601;SDS011;60644;55.858;37.390;2024-03-07T06:14:29;11.83;;;2.60;;
72601;SDS011;60644;55.858;37.390;2024-03-07T06:16:55;8.52;;;2.67;;
72601;SDS011;60644;55.858;37.390;2024-03-07T06:19:23;12.55;;;3.40;;
72601;SDS011;60644;55.858;37.390;2024-03-07T06:21:49;8.77;;;2.58;;
72601;SDS011;60644;55.858;37.390;2024-03-07T06:24:15;10.90;;;2.80;;
72601;SDS011;60644;55.858;37.390;2024-03-07T06:26:43;10.73;;;2.70;;
72601;SDS011;60644;55.858;37.390;2024-03-07T06:29:29;9.85;;;2.58;;
72601;SDS011;60644;55.858;37.390;2024-03-07T06:31:55;7.07;;;2.35;;
72601;SDS011;60644;55.858;37.390;2024-03-07T06:34:21;11.30;;;3.10;;
72601;SDS011;60644;55.858;37.390;2024-03-07T06:36:47;10.13;;;2.67;;
72601;SDS011;60644;55.858;37.390;2024-03-07T06:39:12;8.73;;;3.33;;
72601;SDS011;60644;55.858;37.390;2024-03-07T06:41:39;12.52;;;2.97;;
72601;SDS011;60644;55.858;37.390;2024-03-07T06:44:04;17.00;;;3.05;;
72601;SDS011;60644;55.858;37.390;2024-03-07T06:46:30;7.60;;;2.00;;
72601;SDS011;60644;55.858;37.390;2024-03-07T06:52:03;13.95;;;3.28;;
72601;SDS011;60644;55.858;37.390;2024-03-07T06:54:29;14.00;;;3.70;;
72601;SDS011;60644;55.858;37.390;2024-03-07T06:56:54;15.43;;;4.00;;
72601;SDS011;60644;55.858;37.390;2024-03-07T06:59:20;14.00;;;2.92;;
72601;SDS011;60644;55.858;37.390;2024-03-07T07:01:46;10.47;;;3.30;;
72601;SDS011;60644;55.858;37.390;2024-03-07T07:04:11;12.80;;;3.88;;
72601;SDS011;60644;55.858;37.390;2024-03-07T07:06:40;10.27;;;2.57;;
72601;SDS011;60644;55.858;37.390;2024-03-07T07:09:08;11.27;;;3.33;;
72601;SDS011;60644;55.858;37.390;2024-03-07T07:11:34;13.82;;;3.47;;
72601;SDS011;60644;55.858;37.390;2024-03-07T07:14:02;16.88;;;4.72;;
72601;SDS011;60644;55.858;37.390;2024-03-07T07:16:28;15.57;;;3.03;;
72601;SDS011;60644;55.858;37.390;2024-03-07T07:18:56;12.40;;;4.38;;
72601;SDS011;60644;55.858;37.390;2024-03-07T07:21:22;15.55;;;4.35;;
72601;SDS011;60644;55.858;37.390;2024-03-07T07:23:48;13.77;;;3.70;;
72601;SDS011;60644;55.858;37.390;2024-03-07T07:26:13;16.10;;;3.83;;
72601;SDS011;60644;55.858;37.390;2024-03-07T07:28:39;15.37;;;4.60;;
72601;SDS011;60644;55.858;37.390;2024-03-07T07:31:06;16.73;;;4.60;;
72601;SDS011;60644;55.858;37.390;2024-03-07T07:33:32;13.90;;;4.30;;
72601;SDS011;60644;55.858;37.390;2024-03-07T07:35:58;14.33;;;4.07;;
72601;SDS011;60644;55.858;37.390;2024-03-07T07:38:24;14.20;;;3.75;;
72601;SDS011;60644;55.858;37.390;2024-03-07T07:40:49;10.93;;;3.77;;
72601;SDS011;60644;55.858;37.390;2024-03-07T07:43:16;10.68;;;3.00;;
72601;SDS011;60644;55.858;37.390;2024-03-07T07:45:42;15.93;;;4.10;;
72601;SDS011;60644;55.858;37.390;2024-03-07T07:48:08;12.77;;;3.88;;
72601;SDS011;60644;55.858;37.390;2024-03-07T07:50:34;11.82;;;3.95;;
72601;SDS011;60644;55.858;37.390;2024-03-07T07:53:00;11.03;;;3.70;;
72601;SDS011;60644;55.858;37.390;2024-03-07T07:55:26;14.95;;;4.10;;
72601;SDS011;60644;55.858;37.390;2024-03-07T07:57:56;15.38;;;4.70;;
72601;SDS011;60644;55.858;37.390;2024-03-07T08:00:23;14.77;;;4.13;;
72601;SDS011;60644;55.858;37.390;2024-03-07T08:02:50;18.90;;;4.88;;
72601;SDS011;60644;55.858;37.390;2024-03-07T08:05:17;11.63;;;3.67;;
72601;SDS011;60644;55.858;37.390;2024-03-07T08:07:46;18.73;;;4.10;;
72601;SDS011;60644;55.858;37.390;2024-03-07T08:10:14;14.80;;;3.30;;
72601;SDS011;60644;55.858;37.390;2024-03-07T08:12:40;13.13;;;4.37;;
72601;SDS011;60644;55.858;37.390;2024-03-07T08:15:12;14.25;;;3.85;;
72601;SDS011;60644;55.858;37.390;2024-03-07T08:17:44;15.75;;;4.20;;
72601;SDS011;60644;55.858;37.390;2024-03-07T08:20:11;14.18;;;3.58;;
72601;SDS011;60644;55.858;37.390;2024-03-07T08:22:38;14.07;;;4.07;;
72601;SDS011;60644;55.858;37.390;2024-03-07T08:25:03;13.57;;;4.03;;
72601;SDS011;60644;55.858;37.390;2024-03-07T08:27:38;10.48;;;3.30;;
72601;SDS011;60644;55.858;37.390;2024-03-07T08:30:04;15.52;;;4.45;;
72601;SDS011;60644;55.858;37.390;2024-03-07T08:32:32;16.17;;;4.18;;
72601;SDS011;60644;55.858;37.390;2024-03-07T08:34:59;15.57;;;3.42;;
72601;SDS011;60644;55.858;37.390;2024-03-07T08:37:28;14.43;;;3.47;;
72601;SDS011;60644;55.858;37.390;2024-03-07T08:39:54;16.98;;;3.83;;
72601;SDS011;60644;55.858;37.390;2024-03-07T08:42:19;13.67;;;2.97;;
72601;SDS011;60644;55.858;37.390;2024-03-07T08:44:45;16.55;;;3.13;;
72601;SDS011;60644;55.858;37.390;2024-03-07T08:47:11;12.23;;;3.00;;
72601;SDS011;60644;55.858;37.390;2024-03-07T08:49:37;15.13;;;3.85;;
72601;SDS011;60644;55.858;37.390;2024-03-07T08:52:02;11.83;;;3.17;;
72601;SDS011;60644;55.858;37.390;2024-03-07T08:54:28;13.23;;;3.47;;
72601;SDS011;60644;55.858;37.390;2024-03-07T08:56:54;9.45;;;3.22;;
72601;SDS011;60644;55.858;37.390;2024-03-07T08:59:20;10.57;;;2.80;;
72601;SDS011;60644;55.858;37.390;2024-03-07T09:01:46;11.05;;;2.85;;
72601;SDS011;60644;55.858;37.390;2024-03-07T09:04:11;10.13;;;2.80;;
72601;SDS011;60644;55.858;37.390;2024-03-07T09:06:37;9.80;;;2.78;;
72601;SDS011;60644;55.858;37.390;2024-03-07T09:09:03;11.47;;;3.30;;
72601;SDS011;60644;55.858;37.390;2024-03-07T09:11:28;14.88;;;3.42;;
72601;SDS011;60644;55.858;37.390;2024-03-07T09:13:54;12.53;;;2.70;;
72601;SDS011;60644;55.858;37.390;2024-03-07T09:16:20;11.20;;;3.08;;
72601;SDS011;60644;55.858;37.390;2024-03-07T09:18:45;13.35;;;3.92;;
72601;SDS011;60644;55.858;37.390;2024-03-07T09:21:11;10.30;;;2.77;;
72601;SDS011;60644;55.858;37.390;2024-03-07T09:23:37;14.25;;;2.70;;
72601;SDS011;60644;55.858;37.390;2024-03-07T09:26:03;12.17;;;2.77;;
72601;SDS011;60644;55.858;37.390;2024-03-07T09:28:31;12.80;;;2.65;;
72601;SDS011;60644;55.858;37.390;2024-03-07T09:30:59;10.25;;;2.60;;
72601;SDS011;60644;55.858;37.390;2024-03-07T09:33:25;6.70;;;1.63;;
72601;SDS011;60644;55.858;37.390;2024-03-07T09:35:50;4.95;;;0.73;;
72601;SDS011;60644;55.858;37.390;2024-03-07T09:38:16;4.57;;;0.60;;
72601;SDS011;60644;55.858;37.390;2024-03-07T09:40:42;6.38;;;0.80;;
72601;SDS011;60644;55.858;37.390;2024-03-07T09:43:07;2.77;;;0.47;;
72601;SDS011;60644;55.858;37.390;2024-03-07T09:45:35;4.80;;;0.88;;
72601;SDS011;60644;55.858;37.390;2024-03-07T09:48:01;6.88;;;0.90;;
72601;SDS011;60644;55.858;37.390;2024-03-07T09:50:29;3.47;;;0.63;;
72601;SDS011;60644;55.858;37.390;2024-03-07T09:52:54;4.68;;;1.10;;
72601;SDS011;60644;55.858;37.390;2024-03-07T09:55:20;3.20;;;0.57;;
72601;SDS011;60644;55.858;37.390;2024-03-07T09:57:47;6.90;;;1.17;;
72601;SDS011;60644;55.858;37.390;2024-03-07T10:00:15;3.28;;;0.63;;
72601;SDS011;60644;55.858;37.390;2024-03-07T10:02:50;24.17;;;8.43;;
72601;SDS011;60644;55.858;37.390;2024-03-07T10:05:18;6.72;;;1.35;;
72601;SDS011;60644;55.858;37.390;2024-03-07T10:07:45;5.15;;;0.90;;
72601;SDS011;60644;55.858;37.390;2024-03-07T10:10:11;3.73;;;0.60;;
72601;SDS011;60644;55.858;37.390;2024-03-07T10:12:38;3.03;;;0.60;;
72601;SDS011;60644;55.858;37.390;2024-03-07T10:15:03;5.30;;;0.77;;
72601;SDS011;60644;55.858;37.390;2024-03-07T10:17:31;4.32;;;0.90;;
72601;SDS011;60644;55.858;37.390;2024-03-07T10:20:03;4.45;;;0.80;;
72601;SDS011;60644;55.858;37.390;2024-03-07T10:22:29;5.07;;;0.80;;
72601;SDS011;60644;55.858;37.390;2024-03-07T10:24:55;5.68;;;1.00;;
72601;SDS011;60644;55.858;37.390;2024-03-07T10:27:27;5.15;;;0.70;;
72601;SDS011;60644;55.858;37.390;2024-03-07T10:29:54;3.97;;;0.50;;
72601;SDS011;60644;55.858;37.390;2024-03-07T10:32:20;4.47;;;0.80;;
72601;SDS011;60644;55.858;37.390;2024-03-07T10:34:47;5.17;;;0.63;;
72601;SDS011;60644;55.858;37.390;2024-03-07T10:37:14;5.18;;;0.82;;
72601;SDS011;60644;55.858;37.390;2024-03-07T10:39:49;4.38;;;0.60;;
72601;SDS011;60644;55.858;37.390;2024-03-07T10:42:15;2.58;;;0.50;;
72601;SDS011;60644;55.858;37.390;2024-03-07T10:44:44;4.47;;;0.90;;
72601;SDS011;60644;55.858;37.390;2024-03-07T10:47:20;3.93;;;0.80;;
72601;SDS011;60644;55.858;37.390;2024-03-07T10:52:39;7.93;;;0.98;;
72601;SDS011;60644;55.858;37.390;2024-03-07T10:57:49;5.65;;;1.00;;
72601;SDS011;60644;55.858;37.390;2024-03-07T11:00:16;5.83;;;0.80;;
72601;SDS011;60644;55.858;37.390;2024-03-07T11:03:01;5.53;;;1.02;;
72601;SDS011;60644;55.858;37.390;2024-03-07T11:05:28;5.35;;;1.10;;
72601;SDS011;60644;55.858;37.390;2024-03-07T11:07:58;4.90;;;0.80;;
72601;SDS011;60644;55.858;37.390;2024-03-07T11:10:24;3.80;;;0.73;;
72601;SDS011;60644;55.858;37.390;2024-03-07T11:12:50;6.93;;;1.03;;
72601;SDS011;60644;55.858;37.390;2024-03-07T11:15:17;4.80;;;0.63;;
72601;SDS011;60644;55.858;37.390;2024-03-07T11:17:46;3.47;;;0.55;;
72601;SDS011;60644;55.858;37.390;2024-03-07T11:22:46;3.78;;;0.80;;
72601;SDS011;60644;55.858;37.390;2024-03-07T11:25:11;4.13;;;0.70;;
72601;SDS011;60644;55.858;37.390;2024-03-07T11:27:38;4.10;;;0.98;;
72601;SDS011;60644;55.858;37.390;2024-03-07T11:30:08;3.65;;;0.60;;
72601;SDS011;60644;55.858;37.390;2024-03-07T11:32:35;3.97;;;0.68;;
72601;SDS011;60644;55.858;37.390;2024-03-07T11:35:04;5.40;;;1.00;;
72601;SDS011;60644;55.858;37.390;2024-03-07T11:37:39;4.15;;;0.70;;
72601;SDS011;60644;55.858;37.390;2024-03-07T11:42:47;2.22;;;0.40;;
72601;SDS011;60644;55.858;37.390;2024-03-07T11:45:13;3.50;;;0.70;;
72601;SDS011;60644;55.858;37.390;2024-03-07T11:48:06;3.30;;;0.50;;
72601;SDS011;60644;55.858;37.390;2024-03-07T11:50:38;3.95;;;0.57;;
72601;SDS011;60644;55.858;37.390;2024-03-07T11:53:05;3.08;;;0.60;;
72601;SDS011;60644;55.858;37.390;2024-03-07T11:55:31;5.03;;;0.60;;
72601;SDS011;60644;55.858;37.390;2024-03-07T11:58:18;3.45;;;0.57;;
72601;SDS011;60644;55.858;37.390;2024-03-07T12:00:47;2.65;;;0.77;;
72601;SDS011;60644;55.858;37.390;2024-03-07T12:03:13;4.20;;;0.70;;
72601;SDS011;60644;55.858;37.390;2024-03-07T12:05:40;6.15;;;1.02;;
72601;SDS011;60644;55.858;37.390;2024-03-07T12:08:12;4.47;;;0.40;;
72601;SDS011;60644;55.858;37.390;2024-03-07T12:10:38;3.47;;;0.50;;
72601;SDS011;60644;55.858;37.390;2024-03-07T12:13:05;4.15;;;0.60;;
72601;SDS011;60644;55.858;37.390;2024-03-07T12:15:30;4.60;;;0.50;;
72601;SDS011;60644;55.858;37.390;2024-03-07T12:17:57;4.30;;;0.90;;
72601;SDS011;60644;55.858;37.390;2024-03-07T12:20:23;4.23;;;0.70;;
72601;SDS011;60644;55.858;37.390;2024-03-07T12:23:02;3.55;;;0.50;;
72601;SDS011;60644;55.858;37.390;2024-03-07T12:25:28;3.42;;;0.50;;
72601;SDS011;60644;55.858;37.390;2024-03-07T12:28:01;4.05;;;0.65;;
72601;SDS011;60644;55.858;37.390;2024-03-07T12:30:34;5.63;;;0.73;;
72601;SDS011;60644;55.858;37.390;2024-03-07T12:33:01;3.43;;;0.40;;
72601;SDS011;60644;55.858;37.390;2024-03-07T12:35:30;3.42;;;0.40;;
72601;SDS011;60644;55.858;37.390;2024-03-07T12:37:56;4.78;;;0.50;;
72601;SDS011;60644;55.858;37.390;2024-03-07T12:40:22;2.72;;;0.40;;
72601;SDS011;60644;55.858;37.390;2024-03-07T12:42:52;3.05;;;0.47;;
72601;SDS011;60644;55.858;37.390;2024-03-07T12:45:20;2.73;;;0.50;;
72601;SDS011;60644;55.858;37.390;2024-03-07T12:47:47;3.35;;;0.30;;
72601;SDS011;60644;55.858;37.390;2024-03-07T12:50:16;3.97;;;0.40;;
72601;SDS011;60644;55.858;37.390;2024-03-07T12:52:42;3.75;;;0.60;;
72601;SDS011;60644;55.858;37.390;2024-03-07T12:55:08;4.07;;;0.77;;
72601;SDS011;60644;55.858;37.390;2024-03-07T12:57:33;2.50;;;0.50;;
72601;SDS011;60644;55.858;37.390;2024-03-07T12:59:59;2.80;;;0.47;;
72601;SDS011;60644;55.858;37.390;2024-03-07T13:02:25;3.33;;;0.30;;
72601;SDS011;60644;55.858;37.390;2024-03-07T13:04:53;4.78;;;0.70;;
72601;SDS011;60644;55.858;37.390;2024-03-07T13:07:18;3.45;;;0.60;;
72601;SDS011;60644;55.858;37.390;2024-03-07T13:09:44;2.27;;;0.23;;
72601;SDS011;60644;55.858;37.390;2024-03-07T13:12:13;4.07;;;0.43;;
72601;SDS011;60644;55.858;37.390;2024-03-07T13:14:40;2.50;;;0.30;;
72601;SDS011;60644;55.858;37.390;2024-03-07T13:17:05;3.60;;;0.50;;
72601;SDS011;60644;55.858;37.390;2024-03-07T13:19:32;3.28;;;0.35;;
72601;SDS011;60644;55.858;37.390;2024-03-07T13:21:58;3.13;;;0.55;;
72601;SDS011;60644;55.858;37.390;2024-03-07T13:24:24;3.15;;;0.43;;
72601;SDS011;60644;55.858;37.390;2024-03-07T13:26:50;5.28;;;0.75;;
72601;SDS011;60644;55.858;37.390;2024-03-07T13:29:16;3.90;;;0.47;;
72601;SDS011;60644;55.858;37.390;2024-03-07T13:31:42;3.50;;;0.30;;
72601;SDS011;60644;55.858;37.390;2024-03-07T13:34:08;7.50;;;0.70;;
72601;SDS011;60644;55.858;37.390;2024-03-07T13:36:41;3.75;;;0.47;;
72601;SDS011;60644;55.858;37.390;2024-03-07T13:39:11;2.60;;;0.20;;
72601;SDS011;60644;55.858;37.390;2024-03-07T13:41:37;2.13;;;0.20;;
72601;SDS011;60644;55.858;37.390;2024-03-07T13:44:03;4.95;;;0.45;;
72601;SDS011;60644;55.858;37.390;2024-03-07T13:46:29;2.70;;;0.35;;
72601;SDS011;60644;55.858;37.390;2024-03-07T13:49:01;3.60;;;0.47;;
72601;SDS011;60644;55.858;37.390;2024-03-07T13:51:39;2.00;;;0.33;;
72601;SDS011;60644;55.858;37.390;2024-03-07T13:54:21;1.98;;;0.30;;
72601;SDS011;60644;55.858;37.390;2024-03-07T14:05:29;4.37;;;0.60;;
72601;SDS011;60644;55.858;37.390;2024-03-07T14:21:46;3.45;;;0.30;;
72601;SDS011;60644;55.858;37.390;2024-03-07T14:32:06;2.67;;;0.23;;
72601;SDS011;60644;55.858;37.390;2024-03-07T14:37:32;1.60;;;0.10;;
72601;SDS011;60644;55.858;37.390;2024-03-07T14:40:14;1.35;;;0.20;;
72601;SDS011;60644;55.858;37.390;2024-03-07T14:42:41;2.80;;;0.50;;
72601;SDS011;60644;55.858;37.390;2024-03-07T14:45:08;3.07;;;0.60;;
72601;SDS011;60644;55.858;37.390;2024-03-07T14:47:38;2.33;;;0.20;;
72601;SDS011;60644;55.858;37.390;2024-03-07T14:50:04;2.45;;;0.20;;
72601;SDS011;60644;55.858;37.390;2024-03-07T14:52:30;1.83;;;0.20;;
72601;SDS011;60644;55.858;37.390;2024-03-07T14:54:57;5.18;;;0.40;;
72601;SDS011;60644;55.858;37.390;2024-03-07T14:57:22;2.78;;;0.30;;
72601;SDS011;60644;55.858;37.390;2024-03-07T14:59:48;6.37;;;1.27;;
72601;SDS011;60644;55.858;37.390;2024-03-07T15:02:16;3.22;;;0.38;;
72601;SDS011;60644;55.858;37.390;2024-03-07T15:04:42;3.67;;;0.50;;
72601;SDS011;60644;55.858;37.390;2024-03-07T15:07:09;2.60;;;0.40;;
72601;SDS011;60644;55.858;37.390;2024-03-07T15:09:35;2.93;;;0.40;;
72601;SDS011;60644;55.858;37.390;2024-03-07T15:12:02;5.55;;;0.50;;
72601;SDS011;60644;55.858;37.390;2024-03-07T15:14:27;3.88;;;0.60;;